sensor_id;sensor_type;location;lat;lon;timestamp;pressure;altitude;pressure_sealevel;temperature;humidity
24746;BME280;12845;52.042;6.838;2023-04-24T00:02:01;-18306.66;;;10.35;100.00
24746;BME280;12845;52.042;6.838;2023-04-24T00:04:26;-18304.59;;;10.27;100.00
24746;BME280;12845;52.042;6.838;2023-04-24T00:06:52;-18304.16;;;10.26;100.00
24746;BME280;12845;52.042;6.838;2023-04-24T00:09:22;-18304.59;;;10.27;100.00
24746;BME280;12845;52.042;6.838;2023-04-24T00:11:47;-18307.19;;;10.37;100.00
24746;BME280;12845;52.042;6.838;2023-04-24T00:14:13;-18306.66;;;10.35;100.00
24746;BME280;12845;52.042;6.838;2023-04-24T00:16:38;-18306.09;;;10.33;100.00
24746;BME280;12845;52.042;6.838;2023-04-24T00:19:03;-18307.63;;;10.38;100.00
24746;BME280;12845;52.042;6.838;2023-04-24T00:21:31;-18306.94;;;10.36;100.00
24746;BME280;12845;52.042;6.838;2023-04-24T00:23:58;-18306.38;;;10.34;100.00
24746;BME280;12845;52.042;6.838;2023-04-24T00:26:23;-18303.75;;;10.24;100.00
24746;BME280;12845;52.042;6.838;2023-04-24T00:28:48;-18304.59;;;10.27;100.00
24746;BME280;12845;52.042;6.838;2023-04-24T00:31:14;-18303.91;;;10.25;100.00
24746;BME280;12845;52.042;6.838;2023-04-24T00:33:39;-18304.31;;;10.26;100.00
24746;BME280;12845;52.042;6.838;2023-04-24T00:36:05;-18305.13;;;10.29;100.00
24746;BME280;12845;52.042;6.838;2023-04-24T00:38:31;-18308.03;;;10.40;100.00
24746;BME280;12845;52.042;6.838;2023-04-24T00:40:56;-18307.88;;;10.39;100.00
24746;BME280;12845;52.042;6.838;2023-04-24T00:43:21;-18307.88;;;10.39;100.00
24746;BME280;12845;52.042;6.838;2023-04-24T00:45:47;-18307.19;;;10.37;100.00
24746;BME280;12845;52.042;6.838;2023-04-24T00:48:12;-18308.56;;;10.42;100.00
24746;BME280;12845;52.042;6.838;2023-04-24T00:50:38;-18306.09;;;10.33;100.00
24746;BME280;12845;52.042;6.838;2023-04-24T00:53:04;-18307.75;;;10.39;100.00
24746;BME280;12845;52.042;6.838;2023-04-24T00:55:30;-18303.22;;;10.22;100.00
24746;BME280;12845;52.042;6.838;2023-04-24T00:57:56;-18305.81;;;10.32;100.00
24746;BME280;12845;52.042;6.838;2023-04-24T01:00:22;-18305.41;;;10.30;100.00
24746;BME280;12845;52.042;6.838;2023-04-24T01:02:48;-18305.81;;;10.32;100.00
24746;BME280;12845;52.042;6.838;2023-04-24T01:05:15;-18304.03;;;10.25;100.00
24746;BME280;12845;52.042;6.838;2023-04-24T01:07:41;-18304.31;;;10.26;100.00
24746;BME280;12845;52.042;6.838;2023-04-24T01:10:09;-18305.69;;;10.31;100.00
24746;BME280;12845;52.042;6.838;2023-04-24T01:12:35;-18306.50;;;10.34;100.00
24746;BME280;12845;52.042;6.838;2023-04-24T01:15:00;-18306.38;;;10.34;100.00
24746;BME280;12845;52.042;6.838;2023-04-24T01:17:26;-18304.88;;;10.28;100.00
24746;BME280;12845;52.042;6.838;2023-04-24T01:19:51;-18306.38;;;10.34;100.00
24746;BME280;12845;52.042;6.838;2023-04-24T01:22:22;-18307.06;;;10.36;100.00
24746;BME280;12845;52.042;6.838;2023-04-24T01:24:48;-18305.97;;;10.32;100.00
24746;BME280;12845;52.042;6.838;2023-04-24T01:27:13;-18306.25;;;10.33;100.00
24746;BME280;12845;52.042;6.838;2023-04-24T01:29:39;-18307.75;;;10.39;100.00
24746;BME280;12845;52.042;6.838;2023-04-24T01:32:05;-18307.75;;;10.39;100.00
24746;BME280;12845;52.042;6.838;2023-04-24T01:34:31;-18303.75;;;10.24;100.00
24746;BME280;12845;52.042;6.838;2023-04-24T01:36:56;-18306.66;;;10.35;100.00
24746;BME280;12845;52.042;6.838;2023-04-24T01:39:22;-18311.31;;;10.52;100.00
24746;BME280;12845;52.042;6.838;2023-04-24T01:41:51;-18308.72;;;10.43;100.00
24746;BME280;12845;52.042;6.838;2023-04-24T01:44:17;-18307.63;;;10.38;100.00
24746;BME280;12845;52.042;6.838;2023-04-24T01:46:43;-18308.16;;;10.41;100.00
24746;BME280;12845;52.042;6.838;2023-04-24T01:49:08;-18306.09;;;10.33;100.00
24746;BME280;12845;52.042;6.838;2023-04-24T01:51:33;-18306.09;;;10.33;100.00
24746;BME280;12845;52.042;6.838;2023-04-24T01:53:59;-18306.78;;;10.35;100.00
24746;BME280;12845;52.042;6.838;2023-04-24T01:56:25;-18304.31;;;10.26;100.00
24746;BME280;12845;52.042;6.838;2023-04-24T01:58:52;-18305.81;;;10.32;100.00
24746;BME280;12845;52.042;6.838;2023-04-24T02:01:23;-18302.25;;;10.19;100.00
24746;BME280;12845;52.042;6.838;2023-04-24T02:03:49;-18304.44;;;10.27;100.00
24746;BME280;12845;52.042;6.838;2023-04-24T02:06:14;-18302.78;;;10.21;100.00
24746;BME280;12845;52.042;6.838;2023-04-24T02:08:40;-18301.69;;;10.16;100.00
24746;BME280;12845;52.042;6.838;2023-04-24T02:11:05;-18301.97;;;10.17;100.00
24746;BME280;12845;52.042;6.838;2023-04-24T02:13:31;-18302.25;;;10.19;100.00
24746;BME280;12845;52.042;6.838;2023-04-24T02:15:58;-18304.31;;;10.26;100.00
24746;BME280;12845;52.042;6.838;2023-04-24T02:18:23;-18300.47;;;10.12;100.00
24746;BME280;12845;52.042;6.838;2023-04-24T02:20:48;-18301.69;;;10.16;100.00
24746;BME280;12845;52.042;6.838;2023-04-24T02:23:14;-18304.03;;;10.25;100.00
24746;BME280;12845;52.042;6.838;2023-04-24T02:25:39;-18301.41;;;10.15;100.00
24746;BME280;12845;52.042;6.838;2023-04-24T02:28:05;-18301.41;;;10.15;100.00
24746;BME280;12845;52.042;6.838;2023-04-24T02:30:30;-18300.59;;;10.12;100.00
24746;BME280;12845;52.042;6.838;2023-04-24T02:32:55;-18300.06;;;10.10;100.00
24746;BME280;12845;52.042;6.838;2023-04-24T02:35:21;-18298.13;;;10.03;100.00
24746;BME280;12845;52.042;6.838;2023-04-24T02:37:46;-18295.94;;;9.95;100.00
24746;BME280;12845;52.042;6.838;2023-04-24T02:40:12;-18291.53;;;9.79;100.00
24746;BME280;12845;52.042;6.838;2023-04-24T02:42:37;-18294.41;;;9.89;100.00
24746;BME280;12845;52.042;6.838;2023-04-24T02:45:03;-18294.28;;;9.89;100.00
24746;BME280;12845;52.042;6.838;2023-04-24T02:47:28;-18292.50;;;9.82;100.00
24746;BME280;12845;52.042;6.838;2023-04-24T02:49:54;-18292.50;;;9.82;100.00
24746;BME280;12845;52.042;6.838;2023-04-24T02:52:19;-18292.34;;;9.82;100.00
24746;BME280;12845;52.042;6.838;2023-04-24T02:54:45;-18292.22;;;9.81;100.00
24746;BME280;12845;52.042;6.838;2023-04-24T02:57:10;-18290.69;;;9.76;100.00
24746;BME280;12845;52.042;6.838;2023-04-24T02:59:35;-18289.59;;;9.71;100.00
24746;BME280;12845;52.042;6.838;2023-04-24T03:02:01;-18291.13;;;9.77;100.00
24746;BME280;12845;52.042;6.838;2023-04-24T03:04:26;-18289.59;;;9.71;100.00
24746;BME280;12845;52.042;6.838;2023-04-24T03:06:52;-18290.44;;;9.75;100.00
24746;BME280;12845;52.042;6.838;2023-04-24T03:09:23;-18291.53;;;9.79;100.00
24746;BME280;12845;52.042;6.838;2023-04-24T03:11:48;-18290.44;;;9.75;100.00
24746;BME280;12845;52.042;6.838;2023-04-24T03:14:14;-18288.38;;;9.67;100.00
24746;BME280;12845;52.042;6.838;2023-04-24T03:16:40;-18288.91;;;9.69;100.00
24746;BME280;12845;52.042;6.838;2023-04-24T03:19:05;-18287.25;;;9.63;100.00
24746;BME280;12845;52.042;6.838;2023-04-24T03:21:31;-18287.69;;;9.64;100.00
24746;BME280;12845;52.042;6.838;2023-04-24T03:23:56;-18287.25;;;9.63;100.00
24746;BME280;12845;52.042;6.838;2023-04-24T03:26:21;-18286.56;;;9.60;100.00
24746;BME280;12845;52.042;6.838;2023-04-24T03:28:47;-18284.50;;;9.53;100.00
24746;BME280;12845;52.042;6.838;2023-04-24T03:31:12;-18283.81;;;9.50;100.00
24746;BME280;12845;52.042;6.838;2023-04-24T03:33:38;-18283.28;;;9.48;100.00
24746;BME280;12845;52.042;6.838;2023-04-24T03:36:03;-18284.50;;;9.53;100.00
24746;BME280;12845;52.042;6.838;2023-04-24T03:38:30;-18284.09;;;9.51;100.00
24746;BME280;12845;52.042;6.838;2023-04-24T03:40:55;-18285.19;;;9.55;100.00
24746;BME280;12845;52.042;6.838;2023-04-24T03:43:20;-18285.75;;;9.57;100.00
24746;BME280;12845;52.042;6.838;2023-04-24T03:45:46;-18285.75;;;9.57;100.00
24746;BME280;12845;52.042;6.838;2023-04-24T03:48:11;-18285.47;;;9.56;100.00
24746;BME280;12845;52.042;6.838;2023-04-24T03:50:37;-18287.25;;;9.63;100.00
24746;BME280;12845;52.042;6.838;2023-04-24T03:53:02;-18288.38;;;9.67;100.00
24746;BME280;12845;52.042;6.838;2023-04-24T03:55:27;-18289.19;;;9.70;100.00
24746;BME280;12845;52.042;6.838;2023-04-24T03:57:53;-18288.78;;;9.68;100.00
24746;BME280;12845;52.042;6.838;2023-04-24T04:00:18;-18288.63;;;9.68;100.00
24746;BME280;12845;52.042;6.838;2023-04-24T04:02:44;-18287.81;;;9.65;100.00
24746;BME280;12845;52.042;6.838;2023-04-24T04:05:09;-18289.06;;;9.69;100.00
24746;BME280;12845;52.042;6.838;2023-04-24T04:07:34;-18288.78;;;9.68;100.00
24746;BME280;12845;52.042;6.838;2023-04-24T04:10:00;-18288.91;;;9.69;100.00
24746;BME280;12845;52.042;6.838;2023-04-24T04:12:25;-18286.31;;;9.59;100.00
24746;BME280;12845;52.042;6.838;2023-04-24T04:14:50;-18286.72;;;9.61;100.00
24746;BME280;12845;52.042;6.838;2023-04-24T04:17:16;-18286.03;;;9.58;100.00
24746;BME280;12845;52.042;6.838;2023-04-24T04:19:41;-18287.41;;;9.63;100.00
24746;BME280;12845;52.042;6.838;2023-04-24T04:22:07;-18285.75;;;9.57;100.00
24746;BME280;12845;52.042;6.838;2023-04-24T04:24:33;-18285.75;;;9.57;100.00
24746;BME280;12845;52.042;6.838;2023-04-24T04:26:59;-18283.28;;;9.48;100.00
24746;BME280;12845;52.042;6.838;2023-04-24T04:29:25;-18284.38;;;9.52;100.00
24746;BME280;12845;52.042;6.838;2023-04-24T04:31:51;-18284.38;;;9.52;100.00
24746;BME280;12845;52.042;6.838;2023-04-24T04:34:16;-18287.00;;;9.62;100.00
24746;BME280;12845;52.042;6.838;2023-04-24T04:36:42;-18285.63;;;9.57;100.00
24746;BME280;12845;52.042;6.838;2023-04-24T04:39:08;-18286.16;;;9.59;100.00
24746;BME280;12845;52.042;6.838;2023-04-24T04:41:33;-18285.19;;;9.55;100.00
24746;BME280;12845;52.042;6.838;2023-04-24T04:44:00;-18288.91;;;9.69;100.00
24746;BME280;12845;52.042;6.838;2023-04-24T04:46:26;-18285.75;;;9.57;100.00
24746;BME280;12845;52.042;6.838;2023-04-24T04:48:52;-18289.59;;;9.71;100.00
24746;BME280;12845;52.042;6.838;2023-04-24T04:51:18;-18287.69;;;9.64;100.00
24746;BME280;12845;52.042;6.838;2023-04-24T04:53:43;-18287.25;;;9.63;100.00
24746;BME280;12845;52.042;6.838;2023-04-24T04:56:09;-18287.41;;;9.63;100.00
24746;BME280;12845;52.042;6.838;2023-04-24T04:58:34;-18288.09;;;9.66;100.00
24746;BME280;12845;52.042;6.838;2023-04-24T05:00:59;-18286.44;;;9.60;100.00
24746;BME280;12845;52.042;6.838;2023-04-24T05:03:25;-18287.69;;;9.64;100.00
24746;BME280;12845;52.042;6.838;2023-04-24T05:05:50;-18284.09;;;9.51;100.00
24746;BME280;12845;52.042;6.838;2023-04-24T05:08:15;-18285.47;;;9.56;100.00
24746;BME280;12845;52.042;6.838;2023-04-24T05:10:41;-18283.00;;;9.47;100.00
24746;BME280;12845;52.042;6.838;2023-04-24T05:13:06;-18282.03;;;9.43;100.00
24746;BME280;12845;52.042;6.838;2023-04-24T05:15:32;-18282.19;;;9.44;100.00
24746;BME280;12845;52.042;6.838;2023-04-24T05:17:57;-18279.16;;;9.33;100.00
24746;BME280;12845;52.042;6.838;2023-04-24T05:20:23;-18279.16;;;9.33;100.00
24746;BME280;12845;52.042;6.838;2023-04-24T05:22:48;-18279.69;;;9.35;100.00
24746;BME280;12845;52.042;6.838;2023-04-24T05:25:13;-18276.66;;;9.23;100.00
24746;BME280;12845;52.042;6.838;2023-04-24T05:27:39;-18278.06;;;9.29;100.00
24746;BME280;12845;52.042;6.838;2023-04-24T05:30:05;-18278.19;;;9.29;100.00
24746;BME280;12845;52.042;6.838;2023-04-24T05:32:31;-18279.44;;;9.34;100.00
24746;BME280;12845;52.042;6.838;2023-04-24T05:34:56;-18279.69;;;9.35;100.00
24746;BME280;12845;52.042;6.838;2023-04-24T05:37:22;-18279.97;;;9.36;100.00
24746;BME280;12845;52.042;6.838;2023-04-24T05:39:47;-18278.75;;;9.31;100.00
24746;BME280;12845;52.042;6.838;2023-04-24T05:42:12;-18278.59;;;9.31;100.00
24746;BME280;12845;52.042;6.838;2023-04-24T05:44:37;-18274.88;;;9.17;100.00
24746;BME280;12845;52.042;6.838;2023-04-24T05:47:03;-18275.56;;;9.19;100.00
24746;BME280;12845;52.042;6.838;2023-04-24T05:49:28;-18275.44;;;9.19;100.00
24746;BME280;12845;52.042;6.838;2023-04-24T05:51:54;-18278.06;;;9.29;100.00
24746;BME280;12845;52.042;6.838;2023-04-24T05:54:19;-18278.19;;;9.29;100.00
24746;BME280;12845;52.042;6.838;2023-04-24T05:56:44;-18277.22;;;9.25;100.00
24746;BME280;12845;52.042;6.838;2023-04-24T05:59:10;-18278.88;;;9.32;100.00
24746;BME280;12845;52.042;6.838;2023-04-24T06:01:35;-18280.53;;;9.38;100.00
24746;BME280;12845;52.042;6.838;2023-04-24T06:04:02;-18279.44;;;9.34;100.00
24746;BME280;12845;52.042;6.838;2023-04-24T06:06:27;-18281.34;;;9.41;100.00
24746;BME280;12845;52.042;6.838;2023-04-24T06:08:54;-18276.81;;;9.24;100.00
24746;BME280;12845;52.042;6.838;2023-04-24T06:11:19;-18278.31;;;9.30;100.00
24746;BME280;12845;52.042;6.838;2023-04-24T06:13:44;-18276.53;;;9.23;100.00
24746;BME280;12845;52.042;6.838;2023-04-24T06:16:10;-18276.41;;;9.22;100.00
24746;BME280;12845;52.042;6.838;2023-04-24T06:18:36;-18278.31;;;9.30;100.00
24746;BME280;12845;52.042;6.838;2023-04-24T06:21:01;-18278.59;;;9.31;100.00
24746;BME280;12845;52.042;6.838;2023-04-24T06:23:27;-18281.63;;;9.42;100.00
24746;BME280;12845;52.042;6.838;2023-04-24T06:25:52;-18280.38;;;9.37;100.00
24746;BME280;12845;52.042;6.838;2023-04-24T06:28:18;-18279.97;;;9.36;100.00
24746;BME280;12845;52.042;6.838;2023-04-24T06:30:43;-18280.81;;;9.39;100.00
24746;BME280;12845;52.042;6.838;2023-04-24T06:33:09;-18283.28;;;9.48;100.00
24746;BME280;12845;52.042;6.838;2023-04-24T06:35:35;-18285.19;;;9.55;100.00
24746;BME280;12845;52.042;6.838;2023-04-24T06:38:01;-18285.19;;;9.55;100.00
24746;BME280;12845;52.042;6.838;2023-04-24T06:40:26;-18283.97;;;9.51;100.00
24746;BME280;12845;52.042;6.838;2023-04-24T06:42:51;-18281.63;;;9.42;100.00
24746;BME280;12845;52.042;6.838;2023-04-24T06:45:17;-18281.75;;;9.42;100.00
24746;BME280;12845;52.042;6.838;2023-04-24T06:47:42;-18284.38;;;9.52;100.00
24746;BME280;12845;52.042;6.838;2023-04-24T06:50:08;-18284.66;;;9.53;100.00
24746;BME280;12845;52.042;6.838;2023-04-24T06:52:33;-18282.03;;;9.43;100.00
24746;BME280;12845;52.042;6.838;2023-04-24T06:55:03;-18281.63;;;9.42;100.00
24746;BME280;12845;52.042;6.838;2023-04-24T06:57:28;-18281.63;;;9.42;100.00
24746;BME280;12845;52.042;6.838;2023-04-24T06:59:55;-18282.19;;;9.44;100.00
24746;BME280;12845;52.042;6.838;2023-04-24T07:02:20;-18283.28;;;9.48;100.00
24746;BME280;12845;52.042;6.838;2023-04-24T07:04:45;-18281.34;;;9.41;100.00
24746;BME280;12845;52.042;6.838;2023-04-24T07:07:12;-18285.63;;;9.57;100.00
24746;BME280;12845;52.042;6.838;2023-04-24T07:09:39;-18284.38;;;9.52;100.00
24746;BME280;12845;52.042;6.838;2023-04-24T07:12:06;-18285.19;;;9.55;100.00
24746;BME280;12845;52.042;6.838;2023-04-24T07:14:32;-18285.06;;;9.55;100.00
24746;BME280;12845;52.042;6.838;2023-04-24T07:16:58;-18286.84;;;9.61;100.00
24746;BME280;12845;52.042;6.838;2023-04-24T07:19:23;-18288.22;;;9.66;100.00
24746;BME280;12845;52.042;6.838;2023-04-24T07:21:49;-18288.22;;;9.66;100.00
24746;BME280;12845;52.042;6.838;2023-04-24T07:24:14;-18290.16;;;9.74;100.00
24746;BME280;12845;52.042;6.838;2023-04-24T07:26:40;-18289.06;;;9.69;100.00
24746;BME280;12845;52.042;6.838;2023-04-24T07:29:06;-18283.81;;;9.50;100.00
24746;BME280;12845;52.042;6.838;2023-04-24T07:31:31;-18284.09;;;9.51;100.00
24746;BME280;12845;52.042;6.838;2023-04-24T07:33:57;-18281.75;;;9.42;100.00
24746;BME280;12845;52.042;6.838;2023-04-24T07:36:23;-18282.19;;;9.44;100.00
24746;BME280;12845;52.042;6.838;2023-04-24T07:38:49;-18282.72;;;9.46;100.00
24746;BME280;12845;52.042;6.838;2023-04-24T07:41:15;-18282.44;;;9.45;100.00
24746;BME280;12845;52.042;6.838;2023-04-24T07:43:41;-18281.06;;;9.40;100.00
24746;BME280;12845;52.042;6.838;2023-04-24T07:46:07;-18280.38;;;9.37;100.00
24746;BME280;12845;52.042;6.838;2023-04-24T07:48:33;-18279.44;;;9.34;100.00
24746;BME280;12845;52.042;6.838;2023-04-24T07:50:58;-18280.25;;;9.37;100.00
24746;BME280;12845;52.042;6.838;2023-04-24T07:53:24;-18280.81;;;9.39;100.00
24746;BME280;12845;52.042;6.838;2023-04-24T07:55:49;-18278.06;;;9.29;100.00
24746;BME280;12845;52.042;6.838;2023-04-24T07:58:15;-18276.41;;;9.22;100.00
24746;BME280;12845;52.042;6.838;2023-04-24T08:00:40;-18276.25;;;9.22;100.00
24746;BME280;12845;52.042;6.838;2023-04-24T08:03:06;-18276.00;;;9.21;100.00
24746;BME280;12845;52.042;6.838;2023-04-24T08:05:31;-18275.16;;;9.18;100.00
24746;BME280;12845;52.042;6.838;2023-04-24T08:07:56;-18275.84;;;9.20;100.00
24746;BME280;12845;52.042;6.838;2023-04-24T08:10:22;-18275.56;;;9.19;100.00
24746;BME280;12845;52.042;6.838;2023-04-24T08:12:48;-18273.78;;;9.13;100.00
24746;BME280;12845;52.042;6.838;2023-04-24T08:15:13;-18271.59;;;9.04;100.00
24746;BME280;12845;52.042;6.838;2023-04-24T08:17:39;-18271.84;;;9.06;100.00
24746;BME280;12845;52.042;6.838;2023-04-24T08:20:05;-18272.97;;;9.10;100.00
24746;BME280;12845;52.042;6.838;2023-04-24T08:22:31;-18271.16;;;9.03;100.00
24746;BME280;12845;52.042;6.838;2023-04-24T08:24:58;-18271.84;;;9.06;100.00
24746;BME280;12845;52.042;6.838;2023-04-24T08:27:23;-18273.50;;;9.12;100.00
24746;BME280;12845;52.042;6.838;2023-04-24T08:29:49;-18270.91;;;9.02;100.00
24746;BME280;12845;52.042;6.838;2023-04-24T08:32:15;-18268.97;;;8.95;100.00
24746;BME280;12845;52.042;6.838;2023-04-24T08:34:40;-18270.75;;;9.01;100.00
24746;BME280;12845;52.042;6.838;2023-04-24T08:37:06;-18270.06;;;8.99;100.00
24746;BME280;12845;52.042;6.838;2023-04-24T08:39:31;-18267.88;;;8.91;100.00
24746;BME280;12845;52.042;6.838;2023-04-24T08:41:57;-18268.69;;;8.94;100.00
24746;BME280;12845;52.042;6.838;2023-04-24T08:44:31;-18269.09;;;8.95;100.00
24746;BME280;12845;52.042;6.838;2023-04-24T08:46:57;-18271.03;;;9.02;100.00
24746;BME280;12845;52.042;6.838;2023-04-24T08:49:24;-18268.69;;;8.94;100.00
24746;BME280;12845;52.042;6.838;2023-04-24T08:51:50;-18266.78;;;8.87;100.00
24746;BME280;12845;52.042;6.838;2023-04-24T08:54:16;-18267.88;;;8.91;100.00
24746;BME280;12845;52.042;6.838;2023-04-24T08:56:44;-18268.41;;;8.93;100.00
24746;BME280;12845;52.042;6.838;2023-04-24T08:59:10;-18269.09;;;8.95;100.00
24746;BME280;12845;52.042;6.838;2023-04-24T09:01:37;-18269.81;;;8.98;100.00
24746;BME280;12845;52.042;6.838;2023-04-24T09:04:03;-18272.00;;;9.06;100.00
24746;BME280;12845;52.042;6.838;2023-04-24T09:06:30;-18271.44;;;9.04;100.00
24746;BME280;12845;52.042;6.838;2023-04-24T09:09:01;-18271.31;;;9.03;100.00
24746;BME280;12845;52.042;6.838;2023-04-24T09:11:30;-18270.91;;;9.02;100.00
24746;BME280;12845;52.042;6.838;2023-04-24T09:13:56;-18269.25;;;8.96;100.00
24746;BME280;12845;52.042;6.838;2023-04-24T09:16:21;-18268.16;;;8.92;100.00
24746;BME280;12845;52.042;6.838;2023-04-24T09:18:49;-18269.09;;;8.95;100.00
24746;BME280;12845;52.042;6.838;2023-04-24T09:21:15;-18269.38;;;8.96;100.00
24746;BME280;12845;52.042;6.838;2023-04-24T09:23:40;-18272.00;;;9.06;100.00
24746;BME280;12845;52.042;6.838;2023-04-24T09:26:06;-18272.97;;;9.10;100.00
24746;BME280;12845;52.042;6.838;2023-04-24T09:33:31;-18268.69;;;8.94;100.00
24746;BME280;12845;52.042;6.838;2023-04-24T09:35:56;-18266.78;;;8.87;100.00
24746;BME280;12845;52.042;6.838;2023-04-24T09:38:36;-18266.50;;;8.86;100.00
24746;BME280;12845;52.042;6.838;2023-04-24T09:41:03;-18267.72;;;8.90;100.00
24746;BME280;12845;52.042;6.838;2023-04-24T09:43:30;-18266.50;;;8.86;100.00
24746;BME280;12845;52.042;6.838;2023-04-24T09:45:57;-18267.31;;;8.89;100.00
24746;BME280;12845;52.042;6.838;2023-04-24T09:48:31;-18268.00;;;8.91;100.00
24746;BME280;12845;52.042;6.838;2023-04-24T09:50:57;-18267.31;;;8.89;100.00
24746;BME280;12845;52.042;6.838;2023-04-24T09:53:25;-18267.31;;;8.89;100.00
24746;BME280;12845;52.042;6.838;2023-04-24T09:55:51;-18265.94;;;8.84;100.00
24746;BME280;12845;52.042;6.838;2023-04-24T09:58:18;-18266.91;;;8.87;100.00
24746;BME280;12845;52.042;6.838;2023-04-24T10:00:49;-18266.91;;;8.87;100.00
24746;BME280;12845;52.042;6.838;2023-04-24T10:03:17;-18265.41;;;8.81;100.00
24746;BME280;12845;52.042;6.838;2023-04-24T10:05:46;-18264.72;;;8.79;100.00
24746;BME280;12845;52.042;6.838;2023-04-24T10:08:12;-18265.94;;;8.84;100.00
24746;BME280;12845;52.042;6.838;2023-04-24T10:10:40;-18265.53;;;8.82;100.00
24746;BME280;12845;52.042;6.838;2023-04-24T10:13:07;-18266.50;;;8.86;100.00
24746;BME280;12845;52.042;6.838;2023-04-24T10:15:33;-18264.16;;;8.77;100.00
24746;BME280;12845;52.042;6.838;2023-04-24T10:17:59;-18264.44;;;8.78;100.00
24746;BME280;12845;52.042;6.838;2023-04-24T10:20:26;-18264.56;;;8.78;100.00
24746;BME280;12845;52.042;6.838;2023-04-24T10:22:54;-18266.78;;;8.87;100.00
24746;BME280;12845;52.042;6.838;2023-04-24T10:25:21;-18265.13;;;8.80;100.00
24746;BME280;12845;52.042;6.838;2023-04-24T10:27:48;-18265.66;;;8.82;100.00
24746;BME280;12845;52.042;6.838;2023-04-24T10:30:15;-18267.03;;;8.88;100.00
24746;BME280;12845;52.042;6.838;2023-04-24T10:32:40;-18268.00;;;8.91;100.00
24746;BME280;12845;52.042;6.838;2023-04-24T10:35:07;-18266.50;;;8.86;100.00
24746;BME280;12845;52.042;6.838;2023-04-24T10:37:43;-18266.22;;;8.85;100.00
24746;BME280;12845;52.042;6.838;2023-04-24T10:40:10;-18264.56;;;8.78;100.00
24746;BME280;12845;52.042;6.838;2023-04-24T10:42:40;-18264.00;;;8.76;100.00
24746;BME280;12845;52.042;6.838;2023-04-24T10:45:06;-18264.72;;;8.79;100.00
24746;BME280;12845;52.042;6.838;2023-04-24T10:47:40;-18262.22;;;8.70;100.00
24746;BME280;12845;52.042;6.838;2023-04-24T10:50:12;-18260.72;;;8.64;100.00
24746;BME280;12845;52.042;6.838;2023-04-24T10:52:44;-18259.88;;;8.61;100.00
24746;BME280;12845;52.042;6.838;2023-04-24T10:55:12;-18257.41;;;8.52;100.00
24746;BME280;12845;52.042;6.838;2023-04-24T10:57:38;-18256.44;;;8.48;100.00
24746;BME280;12845;52.042;6.838;2023-04-24T11:00:20;-18256.72;;;8.49;100.00
24746;BME280;12845;52.042;6.838;2023-04-24T11:02:47;-18254.38;;;8.41;100.00
24746;BME280;12845;52.042;6.838;2023-04-24T11:05:18;-18254.94;;;8.43;100.00
24746;BME280;12845;52.042;6.838;2023-04-24T11:10:38;-18254.38;;;8.41;100.00
24746;BME280;12845;52.042;6.838;2023-04-24T11:13:03;-18257.81;;;8.53;100.00
24746;BME280;12845;52.042;6.838;2023-04-24T11:15:29;-18258.38;;;8.55;100.00
24746;BME280;12845;52.042;6.838;2023-04-24T11:17:55;-18260.72;;;8.64;100.00
24746;BME280;12845;52.042;6.838;2023-04-24T11:20:23;-18259.34;;;8.59;100.00
24746;BME280;12845;52.042;6.838;2023-04-24T11:22:52;-18260.72;;;8.64;100.00
24746;BME280;12845;52.042;6.838;2023-04-24T11:25:20;-18261.13;;;8.66;100.00
24746;BME280;12845;52.042;6.838;2023-04-24T11:27:47;-18261.00;;;8.65;100.00
24746;BME280;12845;52.042;6.838;2023-04-24T11:30:17;-18259.88;;;8.61;100.00
24746;BME280;12845;52.042;6.838;2023-04-24T11:32:47;-18260.44;;;8.63;100.00
24746;BME280;12845;52.042;6.838;2023-04-24T11:35:21;-18261.00;;;8.65;100.00
24746;BME280;12845;52.042;6.838;2023-04-24T11:37:52;-18263.06;;;8.73;100.00
24746;BME280;12845;52.042;6.838;2023-04-24T11:40:19;-18266.50;;;8.86;100.00
24746;BME280;12845;52.042;6.838;2023-04-24T11:42:47;-18270.06;;;8.99;100.00
24746;BME280;12845;52.042;6.838;2023-04-24T11:45:17;-18273.94;;;9.13;100.00
24746;BME280;12845;52.042;6.838;2023-04-24T11:47:44;-18280.38;;;9.37;100.00
24746;BME280;12845;52.042;6.838;2023-04-24T11:50:15;-18282.72;;;9.46;100.00
24746;BME280;12845;52.042;6.838;2023-04-24T11:52:43;-18284.66;;;9.53;100.00
24746;BME280;12845;52.042;6.838;2023-04-24T11:57:42;-18291.25;;;9.78;100.00
24746;BME280;12845;52.042;6.838;2023-04-24T12:00:15;-18293.19;;;9.85;100.00
24746;BME280;12845;52.042;6.838;2023-04-24T12:02:41;-18292.34;;;9.82;100.00
24746;BME280;12845;52.042;6.838;2023-04-24T12:05:06;-18292.34;;;9.82;100.00
24746;BME280;12845;52.042;6.838;2023-04-24T12:07:40;-18294.81;;;9.91;100.00
24746;BME280;12845;52.042;6.838;2023-04-24T12:10:08;-18294.97;;;9.91;100.00
24746;BME280;12845;52.042;6.838;2023-04-24T12:12:34;-18295.09;;;9.92;100.00
24746;BME280;12845;52.042;6.838;2023-04-24T12:15:01;-18296.19;;;9.96;100.00
24746;BME280;12845;52.042;6.838;2023-04-24T12:17:29;-18298.13;;;10.03;100.00
24746;BME280;12845;52.042;6.838;2023-04-24T12:20:04;-18294.81;;;9.91;100.00
24746;BME280;12845;52.042;6.838;2023-04-24T12:22:47;-18297.72;;;10.02;100.00
24746;BME280;12845;52.042;6.838;2023-04-24T12:25:15;-18294.00;;;9.88;100.00
24746;BME280;12845;52.042;6.838;2023-04-24T12:27:41;-18293.31;;;9.85;100.00
24746;BME280;12845;52.042;6.838;2023-04-24T12:30:11;-18294.56;;;9.90;100.00
24746;BME280;12845;52.042;6.838;2023-04-24T12:32:41;-18294.69;;;9.90;100.00
24746;BME280;12845;52.042;6.838;2023-04-24T12:35:07;-18293.44;;;9.86;100.00
24746;BME280;12845;52.042;6.838;2023-04-24T12:37:33;-18293.44;;;9.86;100.00
24746;BME280;12845;52.042;6.838;2023-04-24T12:40:06;-18294.28;;;9.89;100.00
24746;BME280;12845;52.042;6.838;2023-04-24T12:42:32;-18292.91;;;9.84;100.00
24746;BME280;12845;52.042;6.838;2023-04-24T12:44:59;-18291.53;;;9.79;100.00
24746;BME280;12845;52.042;6.838;2023-04-24T12:47:27;-18290.44;;;9.75;100.00
24746;BME280;12845;52.042;6.838;2023-04-24T12:49:53;-18287.69;;;9.64;100.00
24746;BME280;12845;52.042;6.838;2023-04-24T12:52:23;-18286.56;;;9.60;100.00
24746;BME280;12845;52.042;6.838;2023-04-24T12:54:50;-18282.88;;;9.46;100.00